createdAt,value
2019-03-26T00:01:50.626Z,95997.19
2019-03-26T00:04:23.005Z,95995.70
2019-03-26T00:06:54.875Z,95992.80
2019-03-26T00:09:27.203Z,95988.45
2019-03-26T00:12:00.714Z,95992.58
2019-03-26T00:14:33.008Z,95993.16
2019-03-26T00:17:05.280Z,95979.84
2019-03-26T00:19:37.535Z,96001.22
2019-03-26T00:22:10.222Z,95994.06
2019-03-26T00:24:42.369Z,95994.42
2019-03-26T00:27:14.672Z,95991.37
2019-03-26T00:29:47.072Z,95991.58
2019-03-26T00:32:19.347Z,95997.08
2019-03-26T00:34:51.502Z,95992.97
2019-03-26T00:37:23.574Z,95996.22
2019-03-26T00:39:55.871Z,95993.25
2019-03-26T00:42:28.115Z,95992.37
2019-03-26T00:45:00.326Z,95992.91
2019-03-26T00:47:33.130Z,95989.17
2019-03-26T00:50:05.275Z,95991.25
2019-03-26T00:52:37.291Z,95993.22
2019-03-26T00:55:22.042Z,95990.69
2019-03-26T00:57:43.929Z,95987.75
2019-03-26T01:00:18.667Z,95991.81
2019-03-26T01:02:51.042Z,95989.16
2019-03-26T01:05:23.259Z,95987.96
2019-03-26T01:07:55.542Z,95989.09
2019-03-26T01:10:31.320Z,95994.81
2019-03-26T01:13:03.546Z,95991.81
2019-03-26T01:15:35.697Z,96000.17
2019-03-26T01:18:07.914Z,96009.97
2019-03-26T01:20:39.959Z,96015.61
2019-03-26T01:23:11.850Z,96024.48
2019-03-26T01:25:43.754Z,96026.69
2019-03-26T01:28:15.696Z,96034.97
2019-03-26T01:30:47.742Z,96038.91
2019-03-26T01:33:19.571Z,96046.25
2019-03-26T01:35:51.575Z,96043.67
2019-03-26T01:38:23.602Z,96051.51
2019-03-26T01:40:55.679Z,96046.88
2019-03-26T01:43:27.505Z,96053.80
2019-03-26T01:45:59.396Z,96056.03
2019-03-26T01:48:31.232Z,96048.38
2019-03-26T01:51:03.143Z,96048.16
2019-03-26T01:53:35.135Z,96049.72
2019-03-26T01:56:07.108Z,96056.62
2019-03-26T01:58:38.967Z,96056.72
2019-03-26T02:01:10.822Z,96052.80
2019-03-26T02:03:42.642Z,96053.03
2019-03-26T02:06:14.627Z,96060.59
2019-03-26T02:08:46.477Z,96053.28
2019-03-26T02:11:18.472Z,96057.34
2019-03-26T02:13:50.440Z,96065.66
2019-03-26T02:16:22.353Z,96069.46
2019-03-26T02:18:54.397Z,96076.06
2019-03-26T02:21:26.221Z,96078.13
2019-03-26T02:23:58.263Z,96076.16
2019-03-26T02:26:30.091Z,96076.48
2019-03-26T02:29:02.039Z,96075.95
2019-03-26T02:31:33.947Z,96078.05
2019-03-26T02:34:05.857Z,96076.72
2019-03-26T02:36:37.703Z,96074.56
2019-03-26T02:39:10.123Z,96071.92
2019-03-26T02:41:42.023Z,96079.41
2019-03-26T02:44:14.017Z,96086.42
2019-03-26T02:46:45.803Z,96083.13
2019-03-26T02:49:17.818Z,96088.65
2019-03-26T02:51:49.686Z,96096.61
2019-03-26T02:54:21.528Z,96090.48
2019-03-26T02:56:53.355Z,96099.41
2019-03-26T02:59:25.268Z,96099.63
2019-03-26T03:01:57.134Z,96100.25
2019-03-26T03:04:28.932Z,96102.81
2019-03-26T03:07:00.734Z,96101.91
2019-03-26T03:09:32.940Z,96101.91
2019-03-26T03:12:04.936Z,96098.63
2019-03-26T03:14:36.797Z,96098.30
2019-03-26T03:17:08.910Z,96102.09
2019-03-26T03:19:40.769Z,96108.59
2019-03-26T03:22:12.668Z,96114.30
2019-03-26T03:24:44.891Z,96112.66
2019-03-26T03:27:16.799Z,96118.79
2019-03-26T03:29:48.932Z,96118.49
2019-03-26T03:32:20.828Z,96117.73
2019-03-26T03:34:52.648Z,96119.63
2019-03-26T03:37:24.579Z,96129.00
2019-03-26T03:39:56.536Z,96123.58
2019-03-26T03:42:28.502Z,96128.41
2019-03-26T03:45:00.620Z,96135.84
2019-03-26T03:47:35.157Z,96130.41
2019-03-26T03:50:08.642Z,96128.66
2019-03-26T03:52:42.140Z,96134.63
2019-03-26T03:55:14.677Z,96132.52
2019-03-26T03:57:52.726Z,96141.40
2019-03-26T04:00:37.062Z,96147.56
2019-03-26T04:03:10.643Z,96147.69
2019-03-26T04:05:42.584Z,96154.33
2019-03-26T04:08:14.478Z,96157.06
2019-03-26T04:10:46.544Z,96154.91
2019-03-26T04:13:18.347Z,96160.02
2019-03-26T04:15:50.333Z,96163.39
2019-03-26T04:18:22.316Z,96173.03
2019-03-26T04:20:54.307Z,96169.11
2019-03-26T04:23:26.344Z,96175.11
2019-03-26T04:25:58.274Z,96178.16
2019-03-26T04:28:30.149Z,96180.70
2019-03-26T04:31:02.003Z,96177.91
2019-03-26T04:33:34.019Z,96182.72
2019-03-26T04:36:07.056Z,96183.17
2019-03-26T04:38:38.851Z,96183.98
2019-03-26T04:41:10.836Z,96190.58
2019-03-26T04:43:42.638Z,96188.82
2019-03-26T04:46:14.652Z,96194.02
2019-03-26T04:48:46.540Z,96189.06
2019-03-26T04:51:27.334Z,96201.80
2019-03-26T04:53:59.307Z,96202.58
2019-03-26T04:56:31.401Z,96200.80
2019-03-26T04:59:03.474Z,96209.24
2019-03-26T05:01:35.651Z,96216.95
2019-03-26T05:04:07.855Z,96221.89
2019-03-26T05:06:39.808Z,96229.09
2019-03-26T05:09:11.676Z,96222.86
2019-03-26T05:11:43.616Z,96219.67
2019-03-26T05:14:15.659Z,96222.91
2019-03-26T05:16:47.965Z,96220.34
2019-03-26T05:19:19.980Z,96220.17
2019-03-26T05:21:51.933Z,96227.33
2019-03-26T05:24:24.627Z,96234.42
2019-03-26T05:26:56.924Z,96235.81
2019-03-26T05:29:28.752Z,96230.00
2019-03-26T05:32:00.699Z,96235.70
2019-03-26T05:35:02.377Z,96237.97
2019-03-26T05:37:34.223Z,96244.42
2019-03-26T05:40:08.023Z,96240.88
2019-03-26T05:42:40.387Z,96243.61
2019-03-26T05:45:12.616Z,96240.50
2019-03-26T05:47:44.455Z,96251.55
2019-03-26T05:50:16.815Z,96250.33
2019-03-26T05:52:48.877Z,96254.19
2019-03-26T05:55:20.888Z,96261.77
2019-03-26T05:57:52.720Z,96258.74
2019-03-26T06:00:26.567Z,96256.34
2019-03-26T06:02:58.492Z,96253.06
2019-03-26T06:05:30.502Z,96258.81
2019-03-26T06:08:03.275Z,96262.93
2019-03-26T06:10:35.292Z,96262.36
2019-03-26T06:13:07.131Z,96258.45
2019-03-26T06:15:39.038Z,96267.90
2019-03-26T06:18:10.944Z,96262.11
2019-03-26T06:20:43.095Z,96271.05
2019-03-26T06:23:14.991Z,96273.16
2019-03-26T06:25:46.797Z,96272.09
2019-03-26T06:28:18.696Z,96269.42
2019-03-26T06:30:50.916Z,96278.25
2019-03-26T06:33:22.762Z,96281.42
2019-03-26T06:35:54.787Z,96289.04
2019-03-26T06:38:26.751Z,96289.20
2019-03-26T06:40:58.577Z,96291.58
2019-03-26T06:43:30.547Z,96293.21
2019-03-26T06:46:02.544Z,96295.63
2019-03-26T06:48:35.316Z,96294.42
2019-03-26T06:51:07.314Z,96294.39
2019-03-26T06:53:39.246Z,96297.19
2019-03-26T06:56:11.298Z,96302.97
2019-03-26T06:58:43.603Z,96304.71
2019-03-26T07:01:15.966Z,96287.45
2019-03-26T07:03:48.062Z,96296.30
2019-03-26T07:06:20.109Z,96290.98
2019-03-26T07:08:51.996Z,96299.55
2019-03-26T07:11:23.807Z,96304.34
2019-03-26T07:13:55.619Z,96303.66
2019-03-26T07:16:27.612Z,96300.23
2019-03-26T07:19:00.700Z,96316.47
2019-03-26T07:21:32.665Z,96320.37
2019-03-26T07:24:04.582Z,96331.29
2019-03-26T07:26:36.533Z,96331.98
2019-03-26T07:29:08.601Z,96325.84
2019-03-26T07:31:40.531Z,96328.24
2019-03-26T07:34:12.342Z,96330.06
2019-03-26T07:36:44.447Z,96325.97
2019-03-26T07:39:16.417Z,96327.73
2019-03-26T07:41:49.353Z,96332.02
2019-03-26T07:44:21.191Z,96326.23
2019-03-26T07:46:53.010Z,96332.69
2019-03-26T07:49:24.849Z,96328.32
2019-03-26T07:51:56.757Z,96320.05
2019-03-26T07:54:28.670Z,96326.64
2019-03-26T07:57:00.542Z,96327.37
2019-03-26T07:59:32.395Z,96326.72
2019-03-26T08:02:04.291Z,96320.35
2019-03-26T08:04:36.148Z,96323.84
2019-03-26T08:07:08.448Z,96324.89
2019-03-26T08:09:40.282Z,96325.91
2019-03-26T08:12:12.127Z,96324.14
2019-03-26T08:14:44.079Z,96329.25
2019-03-26T08:17:15.861Z,96330.49
2019-03-26T08:19:47.790Z,96331.22
2019-03-26T08:22:19.579Z,96333.75
2019-03-26T08:24:51.421Z,96333.16
2019-03-26T08:27:23.540Z,96323.10
2019-03-26T08:29:55.336Z,96312.17
2019-03-26T08:32:27.150Z,96320.77
2019-03-26T08:34:59.188Z,96322.06
2019-03-26T08:37:31.172Z,96319.50
2019-03-26T08:40:03.057Z,96320.95
2019-03-26T08:42:35.056Z,96322.52
2019-03-26T08:45:08.066Z,96319.02
2019-03-26T08:47:40.184Z,96319.19
2019-03-26T08:50:12.387Z,96324.42
2019-03-26T08:52:44.292Z,96327.05
2019-03-26T08:55:16.344Z,96329.36
2019-03-26T08:57:48.200Z,96340.66
2019-03-26T09:00:20.270Z,96345.55
2019-03-26T09:02:52.078Z,96347.38
2019-03-26T09:05:23.983Z,96338.59
2019-03-26T09:07:55.874Z,96343.61
2019-03-26T09:10:27.914Z,96351.13
2019-03-26T09:12:59.849Z,96345.81
2019-03-26T09:15:31.978Z,96340.91
2019-03-26T09:18:03.841Z,96342.63
2019-03-26T09:20:35.657Z,96346.16
2019-03-26T09:23:07.485Z,96335.63
2019-03-26T09:25:39.469Z,96345.78
2019-03-26T09:28:11.358Z,96345.30
2019-03-26T09:30:43.156Z,96337.85
2019-03-26T09:33:15.141Z,96344.86
2019-03-26T09:35:47.653Z,96346.81
2019-03-26T09:38:19.586Z,96351.06
2019-03-26T09:40:51.487Z,96351.31
2019-03-26T09:43:23.325Z,96362.19
2019-03-26T09:45:55.152Z,96350.60
2019-03-26T09:48:27.085Z,96361.17
2019-03-26T09:50:59.085Z,96361.42
2019-03-26T09:53:31.060Z,96365.14
2019-03-26T09:56:02.990Z,96361.99
2019-03-26T09:58:34.821Z,96359.28
2019-03-26T10:01:07.767Z,96364.02
2019-03-26T10:03:39.739Z,96368.58
2019-03-26T10:06:22.834Z,96369.45
2019-03-26T10:08:52.319Z,96365.78
2019-03-26T10:11:18.734Z,96373.14
2019-03-26T10:13:50.625Z,96370.19
2019-03-26T10:16:22.457Z,96361.30
2019-03-26T10:18:54.331Z,96364.99
2019-03-26T10:21:26.292Z,96360.84
2019-03-26T10:23:58.105Z,96343.75
2019-03-26T10:26:29.954Z,96355.19
2019-03-26T10:29:18.686Z,96351.42
2019-03-26T10:31:36.670Z,96355.19
2019-03-26T10:34:08.627Z,96363.31
2019-03-26T10:36:41.821Z,96353.82
2019-03-26T10:39:13.804Z,96351.14
2019-03-26T10:41:45.730Z,96345.97
2019-03-26T10:44:17.531Z,96349.84
2019-03-26T10:46:49.596Z,96351.05
2019-03-26T10:49:21.621Z,96350.95
2019-03-26T10:51:53.607Z,96338.97
2019-03-26T10:54:25.716Z,96332.74
2019-03-26T10:56:57.693Z,96340.97
2019-03-26T10:59:29.820Z,96328.88
2019-03-26T11:02:02.115Z,96331.66
2019-03-26T11:04:34.251Z,96327.36
2019-03-26T11:07:06.215Z,96326.98
2019-03-26T11:09:38.311Z,96322.74
2019-03-26T11:12:10.498Z,96321.63
2019-03-26T11:14:42.280Z,96328.17
2019-03-26T11:17:14.205Z,96321.13
2019-03-26T11:19:47.147Z,96323.02
2019-03-26T11:22:20.466Z,96324.08
2019-03-26T11:24:52.339Z,96325.49
2019-03-26T11:27:24.569Z,96324.79
2019-03-26T11:29:56.574Z,96317.41
2019-03-26T11:32:28.548Z,96309.77
2019-03-26T11:35:00.429Z,96323.03
2019-03-26T11:37:33.311Z,96322.64
2019-03-26T11:40:05.878Z,96319.59
2019-03-26T11:42:37.745Z,96315.91
2019-03-26T11:45:10.633Z,96308.99
2019-03-26T11:47:42.706Z,96305.42
2019-03-26T11:50:15.386Z,96303.73
2019-03-26T11:52:47.227Z,96311.44
2019-03-26T11:55:21.808Z,96301.41
2019-03-26T11:57:53.033Z,96305.23
2019-03-26T12:00:30.530Z,96306.79
2019-03-26T12:03:02.601Z,96311.94
2019-03-26T12:05:34.394Z,96308.89
2019-03-26T12:08:06.269Z,96307.61
2019-03-26T12:10:38.218Z,96314.17
2019-03-26T12:13:10.114Z,96310.96
2019-03-26T12:15:42.043Z,96307.92
2019-03-26T12:18:14.107Z,96309.83
2019-03-26T12:20:46.005Z,96311.84
2019-03-26T12:23:17.826Z,96306.98
2019-03-26T12:25:49.626Z,96305.59
2019-03-26T12:28:21.517Z,96300.54
2019-03-26T12:30:53.577Z,96310.32
2019-03-26T12:33:25.614Z,96314.73
2019-03-26T12:35:57.416Z,96306.77
2019-03-26T12:38:29.331Z,96310.86
2019-03-26T12:41:01.179Z,96310.74
2019-03-26T12:43:33.076Z,96305.56
2019-03-26T12:46:05.076Z,96302.64
2019-03-26T12:48:37.134Z,96295.45
2019-03-26T12:51:09.316Z,96295.63
2019-03-26T12:53:41.304Z,96300.80
2019-03-26T12:56:14.577Z,96283.61
2019-03-26T12:58:46.658Z,96287.25
2019-03-26T13:01:18.634Z,96293.37
2019-03-26T13:03:50.442Z,96305.28
2019-03-26T13:06:22.336Z,96309.84
2019-03-26T13:08:54.678Z,96302.50
2019-03-26T13:11:26.678Z,96301.11
2019-03-26T13:13:58.585Z,96299.34
2019-03-26T13:16:30.583Z,96295.69
2019-03-26T13:19:02.605Z,96292.33
2019-03-26T13:21:37.434Z,96280.53
2019-03-26T13:24:11.266Z,96292.09
2019-03-26T13:26:41.887Z,96276.34
2019-03-26T13:29:14.069Z,96277.33
2019-03-26T13:31:45.884Z,96286.78
2019-03-26T13:34:18.076Z,96292.67
2019-03-26T13:36:49.869Z,96293.42
2019-03-26T13:39:21.714Z,96291.16
2019-03-26T13:41:53.626Z,96273.89
2019-03-26T13:44:25.641Z,96279.47
2019-03-26T13:46:57.458Z,96272.52
2019-03-26T13:49:29.310Z,96275.09
2019-03-26T13:52:01.197Z,96273.23
2019-03-26T13:54:33.015Z,96271.69
2019-03-26T13:57:04.846Z,96272.27
2019-03-26T13:59:36.854Z,96264.85
2019-03-26T14:02:08.986Z,96257.00
2019-03-26T14:04:40.891Z,96263.62
2019-03-26T14:07:12.887Z,96260.04
2019-03-26T14:09:45.857Z,96258.25
2019-03-26T14:12:17.758Z,96266.07
2019-03-26T14:14:49.595Z,96261.13
2019-03-26T14:17:21.421Z,96265.25
2019-03-26T14:19:53.272Z,96250.91
2019-03-26T14:22:25.143Z,96254.75
2019-03-26T14:24:57.031Z,96246.88
2019-03-26T14:27:28.868Z,96248.42
2019-03-26T14:30:00.721Z,96249.27
2019-03-26T14:32:32.952Z,96247.70
2019-03-26T14:35:05.368Z,96248.63
2019-03-26T14:37:50.212Z,96246.50
2019-03-26T14:40:11.090Z,96248.05
2019-03-26T14:42:42.881Z,96249.92
2019-03-26T14:45:15.221Z,96251.31
2019-03-26T14:47:47.055Z,96248.73
2019-03-26T14:50:19.807Z,96245.81
2019-03-26T14:52:51.860Z,96237.00
2019-03-26T14:55:23.809Z,96228.76
2019-03-26T14:57:55.786Z,96228.20
2019-03-26T15:00:27.920Z,96235.50
2019-03-26T15:02:59.928Z,96235.42
2019-03-26T15:05:31.908Z,96248.00
2019-03-26T15:08:03.987Z,96255.67
2019-03-26T15:10:35.982Z,96245.81
2019-03-26T15:13:08.229Z,96249.05
2019-03-26T15:15:40.285Z,96255.36
2019-03-26T15:18:12.222Z,96248.75
2019-03-26T15:20:44.049Z,96242.05
2019-03-26T15:23:15.861Z,96243.87
2019-03-26T15:25:47.675Z,96246.69
2019-03-26T15:28:19.548Z,96245.11
2019-03-26T15:30:51.472Z,96247.40
2019-03-26T15:33:23.473Z,96246.11
2019-03-26T15:35:55.308Z,96243.70
2019-03-26T15:38:27.297Z,96241.55
2019-03-26T15:40:59.297Z,96239.92
2019-03-26T15:43:31.096Z,96238.98
2019-03-26T15:46:02.987Z,96239.82
2019-03-26T15:48:34.810Z,96233.59
2019-03-26T15:51:06.921Z,96231.23
2019-03-26T15:53:38.971Z,96231.75
2019-03-26T15:56:10.974Z,96236.23
2019-03-26T15:58:43.080Z,96243.05
2019-03-26T16:01:14.979Z,96252.77
2019-03-26T16:03:47.037Z,96258.05
2019-03-26T16:06:19.010Z,96252.19
2019-03-26T16:08:50.952Z,96249.45
2019-03-26T16:11:35.006Z,96252.36
2019-03-26T16:13:56.646Z,96254.04
2019-03-26T16:16:28.559Z,96253.61
2019-03-26T16:19:00.352Z,96252.91
2019-03-26T16:21:32.376Z,96263.97
2019-03-26T16:24:04.299Z,96268.32
2019-03-26T16:26:36.130Z,96260.45
2019-03-26T16:29:08.121Z,96264.66
2019-03-26T16:31:40.127Z,96261.87
2019-03-26T16:34:12.004Z,96264.52
2019-03-26T16:36:44.096Z,96262.83
2019-03-26T16:39:16.069Z,96261.90
2019-03-26T16:41:49.499Z,96267.08
2019-03-26T16:44:21.671Z,96271.66
2019-03-26T16:46:53.574Z,96272.48
2019-03-26T16:49:25.457Z,96274.66
2019-03-26T16:51:58.528Z,96272.79
2019-03-26T16:54:30.356Z,96278.63
2019-03-26T16:57:02.355Z,96286.95
2019-03-26T16:59:34.474Z,96286.86
2019-03-26T17:02:06.357Z,96288.55
2019-03-26T17:04:38.501Z,96281.78
2019-03-26T17:07:10.631Z,96282.99
2019-03-26T17:09:42.612Z,96282.23
2019-03-26T17:12:14.599Z,96281.06
2019-03-26T17:14:48.580Z,96281.89
2019-03-26T17:17:21.836Z,96288.73
2019-03-26T17:19:53.937Z,96296.30
2019-03-26T17:22:26.118Z,96289.28
2019-03-26T17:24:58.064Z,96302.02
2019-03-26T17:27:30.072Z,96298.49
2019-03-26T17:30:02.229Z,96289.19
2019-03-26T17:32:34.660Z,96291.11
2019-03-26T17:35:06.971Z,96293.42
2019-03-26T17:37:39.038Z,96289.34
2019-03-26T17:40:11.140Z,96289.94
2019-03-26T17:42:43.052Z,96302.38
2019-03-26T17:45:15.381Z,96297.93
2019-03-26T17:47:47.423Z,96307.25
2019-03-26T17:50:19.857Z,96305.44
2019-03-26T17:52:51.686Z,96308.29
2019-03-26T17:55:23.646Z,96315.50
2019-03-26T17:57:55.716Z,96318.20
2019-03-26T18:00:46.692Z,96324.35
2019-03-26T18:03:26.204Z,96318.98
2019-03-26T18:05:52.538Z,96323.45
2019-03-26T18:08:24.481Z,96328.63
2019-03-26T18:14:56.858Z,96340.22
2019-03-26T18:17:28.809Z,96334.89
2019-03-26T18:20:00.996Z,96340.23
2019-03-26T18:22:33.340Z,96340.61
2019-03-26T18:25:05.324Z,96342.47
2019-03-26T18:27:38.334Z,96338.85
2019-03-26T18:30:10.755Z,96336.38
2019-03-26T18:32:42.897Z,96337.95
2019-03-26T18:35:15.207Z,96341.72
2019-03-26T18:37:47.234Z,96336.20
2019-03-26T18:40:31.929Z,96337.30
2019-03-26T18:43:03.991Z,96347.64
2019-03-26T18:45:36.058Z,96348.00
2019-03-26T18:48:08.214Z,96356.52
2019-03-26T18:50:40.130Z,96357.53
2019-03-26T18:53:12.277Z,96354.11
2019-03-26T18:55:44.219Z,96361.50
2019-03-26T18:58:16.211Z,96364.28
2019-03-26T19:00:48.195Z,96358.46
2019-03-26T19:03:20.071Z,96359.66
2019-03-26T19:05:51.894Z,96366.66
2019-03-26T19:08:23.946Z,96366.67
2019-03-26T19:10:55.879Z,96366.11
2019-03-26T19:13:27.821Z,96363.52
2019-03-26T19:15:59.717Z,96369.62
2019-03-26T19:18:31.770Z,96369.45
2019-03-26T19:21:03.664Z,96369.82
2019-03-26T19:23:35.616Z,96370.55
2019-03-26T19:26:07.860Z,96376.63
2019-03-26T19:28:40.109Z,96372.30
2019-03-26T19:31:12.108Z,96365.30
2019-03-26T19:33:44.362Z,96373.51
2019-03-26T19:36:16.326Z,96369.62
2019-03-26T19:38:48.440Z,96367.06
2019-03-26T19:41:20.553Z,96363.72
2019-03-26T19:43:52.476Z,96364.01
2019-03-26T19:46:24.503Z,96370.12
2019-03-26T19:48:56.602Z,96368.16
2019-03-26T19:51:28.726Z,96361.77
2019-03-26T19:54:00.677Z,96360.30
2019-03-26T19:56:33.995Z,96376.36
2019-03-26T19:59:05.922Z,96363.80
2019-03-26T20:01:37.744Z,96366.11
2019-03-26T20:04:09.713Z,96372.80
2019-03-26T20:06:41.658Z,96377.56
2019-03-26T20:09:13.519Z,96378.64
2019-03-26T20:11:45.591Z,96372.93
2019-03-26T20:14:17.592Z,96371.81
2019-03-26T20:16:49.499Z,96376.45
2019-03-26T20:19:21.792Z,96373.87
2019-03-26T20:21:53.744Z,96378.28
2019-03-26T20:24:25.769Z,96377.78
2019-03-26T20:26:57.760Z,96372.00
2019-03-26T20:29:29.756Z,96374.44
2019-03-26T20:32:01.670Z,96383.76
2019-03-26T20:34:33.748Z,96386.84
2019-03-26T20:37:06.232Z,96379.04
2019-03-26T20:39:38.038Z,96383.27
2019-03-26T20:42:10.041Z,96392.08
2019-03-26T20:44:41.925Z,96392.05
2019-03-26T20:47:13.945Z,96391.02
2019-03-26T20:49:45.815Z,96402.46
2019-03-26T20:52:17.667Z,96402.12
2019-03-26T20:54:49.635Z,96408.61
2019-03-26T20:57:21.795Z,96399.77
2019-03-26T20:59:53.741Z,96401.03
2019-03-26T21:02:25.643Z,96402.38
2019-03-26T21:04:57.802Z,96403.36
2019-03-26T21:07:29.661Z,96399.97
2019-03-26T21:10:01.762Z,96398.36
2019-03-26T21:12:34.111Z,96405.33
2019-03-26T21:15:07.278Z,96411.39
2019-03-26T21:17:39.571Z,96409.89
2019-03-26T21:20:12.857Z,96415.91
2019-03-26T21:22:44.833Z,96418.48
2019-03-26T21:25:35.737Z,96419.55
2019-03-26T21:28:08.288Z,96418.20
2019-03-26T21:30:40.219Z,96420.50
2019-03-26T21:33:12.365Z,96418.37
2019-03-26T21:35:44.531Z,96421.48
2019-03-26T21:38:16.403Z,96420.91
2019-03-26T21:40:48.413Z,96428.14
2019-03-26T21:43:20.404Z,96422.44
2019-03-26T21:45:52.382Z,96422.78
2019-03-26T21:48:24.359Z,96423.70
2019-03-26T21:50:56.667Z,96418.11
2019-03-26T21:53:28.639Z,96416.71
2019-03-26T21:56:06.823Z,96420.42
2019-03-26T21:58:34.805Z,96419.94
2019-03-26T22:01:06.859Z,96415.17
2019-03-26T22:03:39.048Z,96411.14
2019-03-26T22:06:11.124Z,96417.52
2019-03-26T22:08:43.280Z,96420.86
2019-03-26T22:11:15.451Z,96416.48
2019-03-26T22:13:47.427Z,96415.69
2019-03-26T22:16:19.601Z,96423.80
2019-03-26T22:18:52.004Z,96418.44
2019-03-26T22:21:24.362Z,96414.64
2019-03-26T22:23:56.945Z,96417.47
2019-03-26T22:26:37.749Z,96427.05
2019-03-26T22:29:09.929Z,96428.36
2019-03-26T22:31:42.130Z,96432.04
2019-03-26T22:34:14.046Z,96439.68
2019-03-26T22:36:46.236Z,96455.41
2019-03-26T22:39:18.281Z,96470.94
2019-03-26T22:41:50.162Z,96462.78
2019-03-26T22:44:31.329Z,96466.86
2019-03-26T22:46:56.935Z,96469.72
2019-03-26T22:49:29.073Z,96460.20
2019-03-26T22:52:00.965Z,96459.04
2019-03-26T22:54:32.773Z,96459.20
2019-03-26T22:57:04.805Z,96453.02
2019-03-26T22:59:36.782Z,96449.44
2019-03-26T23:02:08.873Z,96451.95
2019-03-26T23:04:42.494Z,96460.56
2019-03-26T23:07:14.499Z,96461.86
2019-03-26T23:09:46.492Z,96452.36
2019-03-26T23:12:18.608Z,96455.30
2019-03-26T23:14:51.331Z,96457.91
2019-03-26T23:17:23.682Z,96451.32
2019-03-26T23:19:55.693Z,96447.89
2019-03-26T23:22:27.623Z,96445.24
2019-03-26T23:24:59.700Z,96450.66
2019-03-26T23:27:31.779Z,96443.53
2019-03-26T23:30:03.837Z,96440.41
2019-03-26T23:32:35.885Z,96449.80
2019-03-26T23:35:08.650Z,96447.44
2019-03-26T23:37:42.684Z,96448.82
2019-03-26T23:40:15.547Z,96457.06
2019-03-26T23:42:47.502Z,96447.08
2019-03-26T23:45:19.799Z,96433.14
2019-03-26T23:47:51.661Z,96440.09
2019-03-26T23:50:23.523Z,96443.25
2019-03-26T23:52:55.716Z,96451.17
2019-03-26T23:55:27.963Z,96447.91
2019-03-26T23:58:00.015Z,96445.09
